Clearview, Texas
Current Conditions -  °F | °C
As of 12:50 PM on Saturday 22 Nov 2014 (Local Time) from KGYB Reporting Station
Heavy Rain Heavy Rain  
Wind Chill: 63°   Ceiling: 700
Heat Index: 63°   Visibility: 1mi
Dew Point: 62°   Wind: 12mph
Humidity: 95%   Direction: 130°SE
Pressure: 29.93"   Gusts: NA
Location:  30.1644°N, 97.2747°W
Report Text: KGYB 221850Z AUTO 13010KT 1SM +RA OVC007 17/17 A2993 RMK AO2 P0026 T01730165
Loading
Personal Weather Stations






























Interactive Weather Map New forecast layout! Learn more

10-Day Weather Forecast

Advertisements
Track Severe Weather on mobile